sensor_id;sensor_type;location;lat;lon;timestamp;P1;durP1;ratioP1;P2;durP2;ratioP2
36411;SDS011;22445;52.100;5.176;2022-10-17T00:00:41;9.02;;;6.13;;
36411;SDS011;22445;52.100;5.176;2022-10-17T00:03:07;8.80;;;6.45;;
36411;SDS011;22445;52.100;5.176;2022-10-17T00:05:33;11.18;;;7.38;;
36411;SDS011;22445;52.100;5.176;2022-10-17T00:07:59;8.00;;;6.68;;
36411;SDS011;22445;52.100;5.176;2022-10-17T00:10:24;9.70;;;7.00;;
36411;SDS011;22445;52.100;5.176;2022-10-17T00:12:50;8.38;;;7.32;;
36411;SDS011;22445;52.100;5.176;2022-10-17T00:15:17;10.43;;;7.60;;
36411;SDS011;22445;52.100;5.176;2022-10-17T00:17:44;8.75;;;6.60;;
36411;SDS011;22445;52.100;5.176;2022-10-17T00:20:10;10.32;;;8.05;;
36411;SDS011;22445;52.100;5.176;2022-10-17T00:22:36;10.20;;;7.97;;
36411;SDS011;22445;52.100;5.176;2022-10-17T00:25:01;10.23;;;9.20;;
36411;SDS011;22445;52.100;5.176;2022-10-17T00:27:28;10.48;;;8.65;;
36411;SDS011;22445;52.100;5.176;2022-10-17T00:29:53;11.02;;;8.95;;
36411;SDS011;22445;52.100;5.176;2022-10-17T00:32:19;10.20;;;8.93;;
36411;SDS011;22445;52.100;5.176;2022-10-17T00:34:44;13.02;;;9.98;;
36411;SDS011;22445;52.100;5.176;2022-10-17T00:37:10;12.32;;;9.27;;
36411;SDS011;22445;52.100;5.176;2022-10-17T00:39:36;14.88;;;10.23;;
36411;SDS011;22445;52.100;5.176;2022-10-17T00:42:01;11.55;;;9.70;;
36411;SDS011;22445;52.100;5.176;2022-10-17T00:47:34;14.50;;;9.70;;
36411;SDS011;22445;52.100;5.176;2022-10-17T00:50:01;11.00;;;9.10;;
36411;SDS011;22445;52.100;5.176;2022-10-17T00:52:27;9.85;;;8.80;;
36411;SDS011;22445;52.100;5.176;2022-10-17T00:54:57;10.30;;;9.13;;
36411;SDS011;22445;52.100;5.176;2022-10-17T00:57:29;11.27;;;9.07;;
36411;SDS011;22445;52.100;5.176;2022-10-17T00:59:56;12.88;;;9.80;;
36411;SDS011;22445;52.100;5.176;2022-10-17T01:02:22;12.93;;;9.88;;
36411;SDS011;22445;52.100;5.176;2022-10-17T01:04:49;11.68;;;9.75;;
36411;SDS011;22445;52.100;5.176;2022-10-17T01:07:15;14.40;;;9.57;;
36411;SDS011;22445;52.100;5.176;2022-10-17T01:09:41;13.30;;;9.70;;
36411;SDS011;22445;52.100;5.176;2022-10-17T01:12:16;13.75;;;10.40;;
36411;SDS011;22445;52.100;5.176;2022-10-17T01:21:24;13.50;;;10.02;;
36411;SDS011;22445;52.100;5.176;2022-10-17T01:36:38;11.63;;;10.43;;
36411;SDS011;22445;52.100;5.176;2022-10-17T01:39:30;12.27;;;10.88;;
36411;SDS011;22445;52.100;5.176;2022-10-17T01:42:22;13.00;;;10.85;;
36411;SDS011;22445;52.100;5.176;2022-10-17T01:47:55;14.77;;;12.00;;
36411;SDS011;22445;52.100;5.176;2022-10-17T01:50:27;16.90;;;11.70;;
36411;SDS011;22445;52.100;5.176;2022-10-17T01:52:58;13.73;;;12.35;;
36411;SDS011;22445;52.100;5.176;2022-10-17T01:55:31;15.18;;;11.82;;
36411;SDS011;22445;52.100;5.176;2022-10-17T01:58:00;13.52;;;11.63;;
36411;SDS011;22445;52.100;5.176;2022-10-17T02:00:31;14.48;;;12.48;;
36411;SDS011;22445;52.100;5.176;2022-10-17T02:02:57;14.75;;;12.68;;
36411;SDS011;22445;52.100;5.176;2022-10-17T02:05:30;14.00;;;12.10;;
36411;SDS011;22445;52.100;5.176;2022-10-17T02:07:56;13.68;;;12.27;;
36411;SDS011;22445;52.100;5.176;2022-10-17T02:10:45;13.85;;;12.35;;
36411;SDS011;22445;52.100;5.176;2022-10-17T02:19:39;16.10;;;12.25;;
36411;SDS011;22445;52.100;5.176;2022-10-17T02:22:41;14.23;;;12.23;;
36411;SDS011;22445;52.100;5.176;2022-10-17T02:25:28;13.98;;;12.48;;
36411;SDS011;22445;52.100;5.176;2022-10-17T02:34:22;13.30;;;12.00;;
36411;SDS011;22445;52.100;5.176;2022-10-17T02:36:51;13.75;;;12.27;;
36411;SDS011;22445;52.100;5.176;2022-10-17T02:39:20;14.38;;;12.88;;
36411;SDS011;22445;52.100;5.176;2022-10-17T02:41:47;13.93;;;12.23;;
36411;SDS011;22445;52.100;5.176;2022-10-17T02:44:13;15.23;;;12.27;;
36411;SDS011;22445;52.100;5.176;2022-10-17T02:46:40;14.95;;;13.45;;
36411;SDS011;22445;52.100;5.176;2022-10-17T02:49:15;14.52;;;13.00;;
36411;SDS011;22445;52.100;5.176;2022-10-17T02:51:51;16.05;;;12.43;;
36411;SDS011;22445;52.100;5.176;2022-10-17T02:54:24;14.70;;;13.20;;
36411;SDS011;22445;52.100;5.176;2022-10-17T02:57:07;14.00;;;12.60;;
36411;SDS011;22445;52.100;5.176;2022-10-17T02:59:36;15.60;;;12.60;;
36411;SDS011;22445;52.100;5.176;2022-10-17T03:02:03;14.75;;;13.15;;
36411;SDS011;22445;52.100;5.176;2022-10-17T03:04:30;14.88;;;13.15;;
36411;SDS011;22445;52.100;5.176;2022-10-17T03:06:55;14.98;;;13.38;;
36411;SDS011;22445;52.100;5.176;2022-10-17T03:09:21;16.23;;;13.35;;
36411;SDS011;22445;52.100;5.176;2022-10-17T03:11:46;14.90;;;13.38;;
36411;SDS011;22445;52.100;5.176;2022-10-17T03:14:12;14.93;;;13.40;;
36411;SDS011;22445;52.100;5.176;2022-10-17T03:16:37;17.27;;;13.63;;
36411;SDS011;22445;52.100;5.176;2022-10-17T03:19:03;16.00;;;12.13;;
36411;SDS011;22445;52.100;5.176;2022-10-17T03:21:29;15.27;;;12.93;;
36411;SDS011;22445;52.100;5.176;2022-10-17T03:23:54;17.88;;;14.10;;
36411;SDS011;22445;52.100;5.176;2022-10-17T03:26:20;14.18;;;12.30;;
36411;SDS011;22445;52.100;5.176;2022-10-17T03:28:45;13.73;;;12.32;;
36411;SDS011;22445;52.100;5.176;2022-10-17T03:31:13;15.18;;;12.20;;
36411;SDS011;22445;52.100;5.176;2022-10-17T03:33:40;16.52;;;12.00;;
36411;SDS011;22445;52.100;5.176;2022-10-17T03:36:09;12.93;;;11.63;;
36411;SDS011;22445;52.100;5.176;2022-10-17T03:38:36;14.52;;;12.43;;
36411;SDS011;22445;52.100;5.176;2022-10-17T03:41:02;14.07;;;12.55;;
36411;SDS011;22445;52.100;5.176;2022-10-17T03:43:29;12.50;;;11.18;;
36411;SDS011;22445;52.100;5.176;2022-10-17T03:45:58;16.50;;;11.65;;
36411;SDS011;22445;52.100;5.176;2022-10-17T03:48:25;13.55;;;12.18;;
36411;SDS011;22445;52.100;5.176;2022-10-17T03:50:51;12.32;;;10.82;;
36411;SDS011;22445;52.100;5.176;2022-10-17T03:53:17;12.20;;;10.95;;
36411;SDS011;22445;52.100;5.176;2022-10-17T03:55:43;11.73;;;10.52;;
36411;SDS011;22445;52.100;5.176;2022-10-17T03:58:08;13.10;;;11.82;;
36411;SDS011;22445;52.100;5.176;2022-10-17T04:00:34;12.43;;;10.95;;
36411;SDS011;22445;52.100;5.176;2022-10-17T04:03:00;13.65;;;11.60;;
36411;SDS011;22445;52.100;5.176;2022-10-17T04:05:26;13.63;;;11.05;;
36411;SDS011;22445;52.100;5.176;2022-10-17T04:07:51;12.45;;;11.25;;
36411;SDS011;22445;52.100;5.176;2022-10-17T04:10:17;12.93;;;10.98;;
36411;SDS011;22445;52.100;5.176;2022-10-17T04:12:43;14.05;;;11.13;;
36411;SDS011;22445;52.100;5.176;2022-10-17T04:15:08;12.35;;;11.07;;
36411;SDS011;22445;52.100;5.176;2022-10-17T04:17:34;12.90;;;10.52;;
36411;SDS011;22445;52.100;5.176;2022-10-17T04:19:59;13.15;;;10.85;;
36411;SDS011;22445;52.100;5.176;2022-10-17T04:22:25;12.63;;;11.38;;
36411;SDS011;22445;52.100;5.176;2022-10-17T04:24:51;11.60;;;10.50;;
36411;SDS011;22445;52.100;5.176;2022-10-17T04:27:17;12.40;;;9.93;;
36411;SDS011;22445;52.100;5.176;2022-10-17T04:29:42;13.40;;;11.27;;
36411;SDS011;22445;52.100;5.176;2022-10-17T04:32:08;18.02;;;11.77;;
36411;SDS011;22445;52.100;5.176;2022-10-17T04:34:34;12.57;;;11.02;;
36411;SDS011;22445;52.100;5.176;2022-10-17T04:36:59;12.93;;;11.55;;
36411;SDS011;22445;52.100;5.176;2022-10-17T04:39:25;11.23;;;9.98;;
36411;SDS011;22445;52.100;5.176;2022-10-17T04:41:51;12.98;;;11.68;;
36411;SDS011;22445;52.100;5.176;2022-10-17T04:44:16;11.82;;;10.60;;
36411;SDS011;22445;52.100;5.176;2022-10-17T04:46:42;12.82;;;10.82;;
36411;SDS011;22445;52.100;5.176;2022-10-17T04:49:08;11.57;;;10.05;;
36411;SDS011;22445;52.100;5.176;2022-10-17T04:51:33;11.98;;;10.27;;
36411;SDS011;22445;52.100;5.176;2022-10-17T04:53:59;12.43;;;10.60;;
36411;SDS011;22445;52.100;5.176;2022-10-17T04:56:25;10.98;;;9.95;;
36411;SDS011;22445;52.100;5.176;2022-10-17T04:58:50;13.40;;;10.77;;
36411;SDS011;22445;52.100;5.176;2022-10-17T05:01:17;14.35;;;11.32;;
36411;SDS011;22445;52.100;5.176;2022-10-17T05:03:44;14.60;;;10.05;;
36411;SDS011;22445;52.100;5.176;2022-10-17T05:06:11;12.48;;;10.20;;
36411;SDS011;22445;52.100;5.176;2022-10-17T05:08:38;10.90;;;9.52;;
36411;SDS011;22445;52.100;5.176;2022-10-17T05:11:04;13.30;;;9.35;;
36411;SDS011;22445;52.100;5.176;2022-10-17T05:13:30;12.35;;;10.07;;
36411;SDS011;22445;52.100;5.176;2022-10-17T05:15:59;10.25;;;9.20;;
36411;SDS011;22445;52.100;5.176;2022-10-17T05:18:26;11.05;;;9.75;;
36411;SDS011;22445;52.100;5.176;2022-10-17T05:20:52;11.30;;;10.13;;
36411;SDS011;22445;52.100;5.176;2022-10-17T05:23:18;11.00;;;9.88;;
36411;SDS011;22445;52.100;5.176;2022-10-17T05:25:43;12.02;;;10.00;;
36411;SDS011;22445;52.100;5.176;2022-10-17T05:28:09;11.40;;;10.23;;
36411;SDS011;22445;52.100;5.176;2022-10-17T05:30:34;12.00;;;10.10;;
36411;SDS011;22445;52.100;5.176;2022-10-17T05:33:00;12.82;;;9.85;;
36411;SDS011;22445;52.100;5.176;2022-10-17T05:35:26;10.82;;;9.77;;
36411;SDS011;22445;52.100;5.176;2022-10-17T05:37:52;12.43;;;10.27;;
36411;SDS011;22445;52.100;5.176;2022-10-17T05:40:17;13.40;;;10.48;;
36411;SDS011;22445;52.100;5.176;2022-10-17T05:42:46;12.45;;;9.82;;
36411;SDS011;22445;52.100;5.176;2022-10-17T05:45:12;12.23;;;10.32;;
36411;SDS011;22445;52.100;5.176;2022-10-17T05:47:38;12.90;;;10.82;;
36411;SDS011;22445;52.100;5.176;2022-10-17T05:50:04;13.90;;;9.98;;
36411;SDS011;22445;52.100;5.176;2022-10-17T05:52:30;10.88;;;9.90;;
36411;SDS011;22445;52.100;5.176;2022-10-17T05:54:55;10.95;;;9.88;;
36411;SDS011;22445;52.100;5.176;2022-10-17T05:57:23;11.88;;;9.85;;
36411;SDS011;22445;52.100;5.176;2022-10-17T05:59:49;14.48;;;9.65;;
36411;SDS011;22445;52.100;5.176;2022-10-17T06:02:15;10.55;;;9.35;;
36411;SDS011;22445;52.100;5.176;2022-10-17T06:04:40;10.27;;;9.25;;
36411;SDS011;22445;52.100;5.176;2022-10-17T06:07:09;10.32;;;9.13;;
36411;SDS011;22445;52.100;5.176;2022-10-17T06:09:35;10.88;;;9.52;;
36411;SDS011;22445;52.100;5.176;2022-10-17T06:12:01;10.30;;;9.30;;
36411;SDS011;22445;52.100;5.176;2022-10-17T06:14:26;10.57;;;9.30;;
36411;SDS011;22445;52.100;5.176;2022-10-17T06:16:52;12.00;;;9.13;;
36411;SDS011;22445;52.100;5.176;2022-10-17T06:19:17;11.00;;;9.52;;
36411;SDS011;22445;52.100;5.176;2022-10-17T06:21:43;10.38;;;9.25;;
36411;SDS011;22445;52.100;5.176;2022-10-17T06:24:08;12.20;;;9.38;;
36411;SDS011;22445;52.100;5.176;2022-10-17T06:26:34;11.50;;;10.38;;
36411;SDS011;22445;52.100;5.176;2022-10-17T06:28:59;12.55;;;9.77;;
36411;SDS011;22445;52.100;5.176;2022-10-17T06:31:25;13.93;;;9.40;;
36411;SDS011;22445;52.100;5.176;2022-10-17T06:33:50;11.30;;;9.43;;
36411;SDS011;22445;52.100;5.176;2022-10-17T06:36:16;10.27;;;9.23;;
36411;SDS011;22445;52.100;5.176;2022-10-17T06:38:41;14.15;;;9.45;;
36411;SDS011;22445;52.100;5.176;2022-10-17T06:41:08;11.02;;;9.85;;
36411;SDS011;22445;52.100;5.176;2022-10-17T06:43:37;11.20;;;9.23;;
36411;SDS011;22445;52.100;5.176;2022-10-17T06:46:04;11.27;;;9.82;;
36411;SDS011;22445;52.100;5.176;2022-10-17T06:48:30;10.50;;;9.40;;
36411;SDS011;22445;52.100;5.176;2022-10-17T06:50:59;13.95;;;10.23;;
36411;SDS011;22445;52.100;5.176;2022-10-17T06:53:26;11.35;;;10.15;;
36411;SDS011;22445;52.100;5.176;2022-10-17T06:55:52;11.85;;;9.25;;
36411;SDS011;22445;52.100;5.176;2022-10-17T06:58:19;10.95;;;9.82;;
36411;SDS011;22445;52.100;5.176;2022-10-17T07:00:45;13.68;;;10.40;;
36411;SDS011;22445;52.100;5.176;2022-10-17T07:03:10;10.98;;;9.88;;
36411;SDS011;22445;52.100;5.176;2022-10-17T07:05:36;12.45;;;9.95;;
36411;SDS011;22445;52.100;5.176;2022-10-17T07:08:03;11.98;;;10.10;;
36411;SDS011;22445;52.100;5.176;2022-10-17T07:10:29;10.48;;;9.23;;
36411;SDS011;22445;52.100;5.176;2022-10-17T07:12:54;10.20;;;9.18;;
36411;SDS011;22445;52.100;5.176;2022-10-17T07:15:20;11.43;;;9.35;;
36411;SDS011;22445;52.100;5.176;2022-10-17T07:17:48;10.18;;;9.15;;
36411;SDS011;22445;52.100;5.176;2022-10-17T07:20:17;10.95;;;8.73;;
36411;SDS011;22445;52.100;5.176;2022-10-17T07:22:43;15.95;;;9.98;;
36411;SDS011;22445;52.100;5.176;2022-10-17T07:25:08;11.07;;;9.48;;
36411;SDS011;22445;52.100;5.176;2022-10-17T07:27:34;12.18;;;9.43;;
36411;SDS011;22445;52.100;5.176;2022-10-17T07:29:59;13.10;;;9.55;;
36411;SDS011;22445;52.100;5.176;2022-10-17T07:32:25;12.75;;;8.70;;
36411;SDS011;22445;52.100;5.176;2022-10-17T07:34:50;11.20;;;8.93;;
36411;SDS011;22445;52.100;5.176;2022-10-17T07:37:16;12.82;;;8.82;;
36411;SDS011;22445;52.100;5.176;2022-10-17T07:39:42;10.02;;;9.02;;
36411;SDS011;22445;52.100;5.176;2022-10-17T07:42:07;10.73;;;9.38;;
36411;SDS011;22445;52.100;5.176;2022-10-17T07:44:33;12.10;;;9.13;;
36411;SDS011;22445;52.100;5.176;2022-10-17T07:46:59;11.05;;;9.18;;
36411;SDS011;22445;52.100;5.176;2022-10-17T07:49:25;11.95;;;8.60;;
36411;SDS011;22445;52.100;5.176;2022-10-17T07:51:50;9.65;;;8.75;;
36411;SDS011;22445;52.100;5.176;2022-10-17T07:54:16;11.00;;;9.10;;
36411;SDS011;22445;52.100;5.176;2022-10-17T07:56:41;10.43;;;8.98;;
36411;SDS011;22445;52.100;5.176;2022-10-17T07:59:07;11.35;;;9.52;;
36411;SDS011;22445;52.100;5.176;2022-10-17T08:01:32;10.40;;;8.68;;
36411;SDS011;22445;52.100;5.176;2022-10-17T08:03:58;11.10;;;9.43;;
36411;SDS011;22445;52.100;5.176;2022-10-17T08:06:23;12.07;;;9.00;;
36411;SDS011;22445;52.100;5.176;2022-10-17T08:08:49;9.93;;;8.57;;
36411;SDS011;22445;52.100;5.176;2022-10-17T08:11:15;14.95;;;9.15;;
36411;SDS011;22445;52.100;5.176;2022-10-17T08:13:40;12.50;;;9.35;;
36411;SDS011;22445;52.100;5.176;2022-10-17T08:16:07;11.55;;;9.80;;
36411;SDS011;22445;52.100;5.176;2022-10-17T08:18:35;14.35;;;9.48;;
36411;SDS011;22445;52.100;5.176;2022-10-17T08:21:01;14.30;;;10.35;;
36411;SDS011;22445;52.100;5.176;2022-10-17T08:23:29;13.35;;;10.48;;
36411;SDS011;22445;52.100;5.176;2022-10-17T08:25:57;13.52;;;11.00;;
36411;SDS011;22445;52.100;5.176;2022-10-17T08:28:24;14.77;;;10.85;;
36411;SDS011;22445;52.100;5.176;2022-10-17T08:30:49;14.55;;;11.93;;
36411;SDS011;22445;52.100;5.176;2022-10-17T08:33:15;13.93;;;11.52;;
36411;SDS011;22445;52.100;5.176;2022-10-17T08:35:40;13.85;;;10.95;;
36411;SDS011;22445;52.100;5.176;2022-10-17T08:38:06;13.70;;;12.02;;
36411;SDS011;22445;52.100;5.176;2022-10-17T08:40:32;12.77;;;10.98;;
36411;SDS011;22445;52.100;5.176;2022-10-17T08:45:57;15.55;;;12.63;;
36411;SDS011;22445;52.100;5.176;2022-10-17T08:48:25;15.07;;;11.10;;
36411;SDS011;22445;52.100;5.176;2022-10-17T08:50:57;15.32;;;11.50;;
36411;SDS011;22445;52.100;5.176;2022-10-17T08:56:37;15.68;;;12.32;;
36411;SDS011;22445;52.100;5.176;2022-10-17T08:59:12;14.00;;;11.85;;
36411;SDS011;22445;52.100;5.176;2022-10-17T09:01:43;15.52;;;11.95;;
36411;SDS011;22445;52.100;5.176;2022-10-17T09:22:53;18.60;;;12.93;;
36411;SDS011;22445;52.100;5.176;2022-10-17T09:25:43;16.65;;;13.57;;
36411;SDS011;22445;52.100;5.176;2022-10-17T09:28:18;15.40;;;12.07;;
36411;SDS011;22445;52.100;5.176;2022-10-17T09:31:11;14.93;;;12.20;;
36411;SDS011;22445;52.100;5.176;2022-10-17T09:33:40;15.20;;;12.73;;
36411;SDS011;22445;52.100;5.176;2022-10-17T09:36:10;17.48;;;13.10;;
36411;SDS011;22445;52.100;5.176;2022-10-17T09:38:40;16.45;;;13.38;;
36411;SDS011;22445;52.100;5.176;2022-10-17T09:41:13;16.45;;;12.90;;
36411;SDS011;22445;52.100;5.176;2022-10-17T09:43:41;16.15;;;12.63;;
36411;SDS011;22445;52.100;5.176;2022-10-17T09:46:12;18.17;;;14.35;;
36411;SDS011;22445;52.100;5.176;2022-10-17T09:48:45;17.33;;;14.07;;
36411;SDS011;22445;52.100;5.176;2022-10-17T09:51:22;15.68;;;13.88;;
36411;SDS011;22445;52.100;5.176;2022-10-17T09:53:49;15.50;;;13.70;;
36411;SDS011;22445;52.100;5.176;2022-10-17T09:56:18;15.20;;;13.18;;
36411;SDS011;22445;52.100;5.176;2022-10-17T09:58:45;16.85;;;12.50;;
36411;SDS011;22445;52.100;5.176;2022-10-17T10:01:20;17.90;;;13.75;;
36411;SDS011;22445;52.100;5.176;2022-10-17T10:03:47;14.48;;;12.95;;
36411;SDS011;22445;52.100;5.176;2022-10-17T10:06:16;14.93;;;13.10;;
36411;SDS011;22445;52.100;5.176;2022-10-17T10:08:53;17.30;;;14.07;;
36411;SDS011;22445;52.100;5.176;2022-10-17T10:12:02;17.55;;;14.35;;
36411;SDS011;22445;52.100;5.176;2022-10-17T10:14:35;15.50;;;13.65;;
36411;SDS011;22445;52.100;5.176;2022-10-17T10:17:03;16.73;;;13.75;;
36411;SDS011;22445;52.100;5.176;2022-10-17T10:19:34;14.98;;;13.38;;
36411;SDS011;22445;52.100;5.176;2022-10-17T10:22:03;16.90;;;13.55;;
36411;SDS011;22445;52.100;5.176;2022-10-17T10:25:12;17.92;;;13.23;;
36411;SDS011;22445;52.100;5.176;2022-10-17T10:27:40;14.52;;;13.00;;
36411;SDS011;22445;52.100;5.176;2022-10-17T10:30:15;17.13;;;14.13;;
36411;SDS011;22445;52.100;5.176;2022-10-17T10:32:41;15.77;;;13.82;;
36411;SDS011;22445;52.100;5.176;2022-10-17T10:35:22;16.92;;;13.73;;
36411;SDS011;22445;52.100;5.176;2022-10-17T10:37:56;15.27;;;12.98;;
36411;SDS011;22445;52.100;5.176;2022-10-17T10:43:28;14.38;;;12.70;;
36411;SDS011;22445;52.100;5.176;2022-10-17T10:46:15;15.52;;;12.32;;
36411;SDS011;22445;52.100;5.176;2022-10-17T10:49:01;12.57;;;11.27;;
36411;SDS011;22445;52.100;5.176;2022-10-17T10:51:29;13.77;;;12.38;;
36411;SDS011;22445;52.100;5.176;2022-10-17T10:54:05;15.95;;;13.05;;
36411;SDS011;22445;52.100;5.176;2022-10-17T10:56:43;12.60;;;11.30;;
36411;SDS011;22445;52.100;5.176;2022-10-17T10:59:14;13.02;;;10.75;;
36411;SDS011;22445;52.100;5.176;2022-10-17T11:02:00;14.57;;;11.25;;
36411;SDS011;22445;52.100;5.176;2022-10-17T11:04:37;12.98;;;11.15;;
36411;SDS011;22445;52.100;5.176;2022-10-17T11:07:32;13.10;;;11.52;;
36411;SDS011;22445;52.100;5.176;2022-10-17T11:10:15;11.40;;;10.30;;
36411;SDS011;22445;52.100;5.176;2022-10-17T11:13:04;13.48;;;10.85;;
36411;SDS011;22445;52.100;5.176;2022-10-17T11:15:45;13.50;;;11.27;;
36411;SDS011;22445;52.100;5.176;2022-10-17T11:21:12;15.45;;;11.77;;
36411;SDS011;22445;52.100;5.176;2022-10-17T11:24:02;14.23;;;11.20;;
36411;SDS011;22445;52.100;5.176;2022-10-17T11:26:58;14.90;;;11.55;;
36411;SDS011;22445;52.100;5.176;2022-10-17T11:29:27;13.70;;;12.30;;
36411;SDS011;22445;52.100;5.176;2022-10-17T11:31:53;13.93;;;12.07;;
36411;SDS011;22445;52.100;5.176;2022-10-17T11:34:22;12.77;;;11.48;;
36411;SDS011;22445;52.100;5.176;2022-10-17T11:36:51;15.38;;;11.52;;
36411;SDS011;22445;52.100;5.176;2022-10-17T11:39:35;13.45;;;11.45;;
36411;SDS011;22445;52.100;5.176;2022-10-17T11:42:14;15.40;;;11.60;;
36411;SDS011;22445;52.100;5.176;2022-10-17T11:44:42;12.52;;;11.23;;
36411;SDS011;22445;52.100;5.176;2022-10-17T11:47:16;11.77;;;10.68;;
36411;SDS011;22445;52.100;5.176;2022-10-17T11:50:02;12.55;;;11.35;;
36411;SDS011;22445;52.100;5.176;2022-10-17T11:52:44;12.25;;;10.95;;
36411;SDS011;22445;52.100;5.176;2022-10-17T11:55:15;13.50;;;12.20;;
36411;SDS011;22445;52.100;5.176;2022-10-17T12:00:52;14.80;;;12.93;;
36411;SDS011;22445;52.100;5.176;2022-10-17T12:09:42;13.35;;;12.10;;
36411;SDS011;22445;52.100;5.176;2022-10-17T12:18:07;6.70;;;6.10;;
36411;SDS011;22445;52.100;5.176;2022-10-17T12:20:40;7.03;;;6.32;;
36411;SDS011;22445;52.100;5.176;2022-10-17T12:25:55;5.32;;;4.85;;
36411;SDS011;22445;52.100;5.176;2022-10-17T12:28:43;5.85;;;4.13;;
36411;SDS011;22445;52.100;5.176;2022-10-17T12:34:01;6.25;;;4.22;;
36411;SDS011;22445;52.100;5.176;2022-10-17T12:39:39;3.58;;;3.28;;
36411;SDS011;22445;52.100;5.176;2022-10-17T12:42:28;4.50;;;3.40;;
36411;SDS011;22445;52.100;5.176;2022-10-17T12:44:54;5.10;;;3.53;;
36411;SDS011;22445;52.100;5.176;2022-10-17T12:53:12;4.78;;;3.85;;
36411;SDS011;22445;52.100;5.176;2022-10-17T12:55:39;5.35;;;3.83;;
36411;SDS011;22445;52.100;5.176;2022-10-17T12:58:09;4.63;;;4.15;;
36411;SDS011;22445;52.100;5.176;2022-10-17T13:03:26;5.10;;;4.38;;
36411;SDS011;22445;52.100;5.176;2022-10-17T13:05:56;6.32;;;4.85;;
36411;SDS011;22445;52.100;5.176;2022-10-17T13:08:27;7.53;;;5.22;;
36411;SDS011;22445;52.100;5.176;2022-10-17T13:10:54;5.93;;;4.57;;
36411;SDS011;22445;52.100;5.176;2022-10-17T13:19:14;8.15;;;5.32;;
36411;SDS011;22445;52.100;5.176;2022-10-17T13:22:01;7.18;;;5.30;;
36411;SDS011;22445;52.100;5.176;2022-10-17T13:24:30;6.28;;;5.32;;
36411;SDS011;22445;52.100;5.176;2022-10-17T13:26:58;5.80;;;5.15;;
36411;SDS011;22445;52.100;5.176;2022-10-17T13:29:24;6.65;;;5.95;;
36411;SDS011;22445;52.100;5.176;2022-10-17T13:31:54;6.88;;;6.13;;
36411;SDS011;22445;52.100;5.176;2022-10-17T13:34:23;7.78;;;6.43;;
36411;SDS011;22445;52.100;5.176;2022-10-17T13:36:51;8.43;;;7.55;;
36411;SDS011;22445;52.100;5.176;2022-10-17T13:39:19;9.07;;;7.63;;
36411;SDS011;22445;52.100;5.176;2022-10-17T13:41:47;8.25;;;7.53;;
36411;SDS011;22445;52.100;5.176;2022-10-17T13:44:17;8.35;;;7.55;;
36411;SDS011;22445;52.100;5.176;2022-10-17T13:46:45;8.60;;;7.68;;
36411;SDS011;22445;52.100;5.176;2022-10-17T13:49:14;11.00;;;7.40;;
36411;SDS011;22445;52.100;5.176;2022-10-17T13:52:02;9.38;;;8.02;;
36411;SDS011;22445;52.100;5.176;2022-10-17T13:54:33;9.10;;;8.30;;
36411;SDS011;22445;52.100;5.176;2022-10-17T13:57:15;9.65;;;8.38;;
36411;SDS011;22445;52.100;5.176;2022-10-17T14:00:14;11.65;;;8.68;;
36411;SDS011;22445;52.100;5.176;2022-10-17T14:02:43;9.27;;;8.32;;
36411;SDS011;22445;52.100;5.176;2022-10-17T14:07:59;8.98;;;8.18;;
36411;SDS011;22445;52.100;5.176;2022-10-17T14:10:33;11.25;;;9.02;;
36411;SDS011;22445;52.100;5.176;2022-10-17T14:13:00;9.88;;;8.90;;
36411;SDS011;22445;52.100;5.176;2022-10-17T14:15:29;9.18;;;8.38;;
36411;SDS011;22445;52.100;5.176;2022-10-17T14:18:00;10.15;;;8.93;;
36411;SDS011;22445;52.100;5.176;2022-10-17T14:20:30;8.65;;;7.85;;
36411;SDS011;22445;52.100;5.176;2022-10-17T14:22:56;9.15;;;7.95;;
36411;SDS011;22445;52.100;5.176;2022-10-17T14:28:14;7.70;;;6.95;;
36411;SDS011;22445;52.100;5.176;2022-10-17T14:30:44;8.95;;;7.65;;
36411;SDS011;22445;52.100;5.176;2022-10-17T14:33:22;7.95;;;7.07;;
36411;SDS011;22445;52.100;5.176;2022-10-17T14:35:49;7.85;;;6.85;;
36411;SDS011;22445;52.100;5.176;2022-10-17T14:38:16;7.78;;;7.07;;
36411;SDS011;22445;52.100;5.176;2022-10-17T14:40:48;7.70;;;5.63;;
36411;SDS011;22445;52.100;5.176;2022-10-17T14:43:29;7.88;;;6.15;;
36411;SDS011;22445;52.100;5.176;2022-10-17T14:46:00;8.68;;;5.68;;
36411;SDS011;22445;52.100;5.176;2022-10-17T14:48:27;6.20;;;5.60;;
36411;SDS011;22445;52.100;5.176;2022-10-17T14:54:04;7.90;;;5.25;;
36411;SDS011;22445;52.100;5.176;2022-10-17T14:56:47;7.07;;;6.13;;
36411;SDS011;22445;52.100;5.176;2022-10-17T14:59:15;6.88;;;6.28;;
36411;SDS011;22445;52.100;5.176;2022-10-17T15:01:46;6.03;;;5.43;;
36411;SDS011;22445;52.100;5.176;2022-10-17T15:04:13;6.82;;;6.10;;
36411;SDS011;22445;52.100;5.176;2022-10-17T15:06:39;6.95;;;6.25;;
36411;SDS011;22445;52.100;5.176;2022-10-17T15:09:05;8.35;;;5.32;;
36411;SDS011;22445;52.100;5.176;2022-10-17T15:11:31;9.35;;;6.10;;
36411;SDS011;22445;52.100;5.176;2022-10-17T15:13:56;7.60;;;6.05;;
36411;SDS011;22445;52.100;5.176;2022-10-17T15:16:23;9.50;;;6.13;;
36411;SDS011;22445;52.100;5.176;2022-10-17T15:18:50;7.53;;;5.43;;
36411;SDS011;22445;52.100;5.176;2022-10-17T15:21:17;6.93;;;5.43;;
36411;SDS011;22445;52.100;5.176;2022-10-17T15:23:45;6.18;;;5.57;;
36411;SDS011;22445;52.100;5.176;2022-10-17T15:26:30;6.55;;;5.88;;
36411;SDS011;22445;52.100;5.176;2022-10-17T15:28:56;7.30;;;5.60;;
36411;SDS011;22445;52.100;5.176;2022-10-17T15:31:23;5.75;;;5.15;;
36411;SDS011;22445;52.100;5.176;2022-10-17T15:33:50;6.22;;;5.57;;
36411;SDS011;22445;52.100;5.176;2022-10-17T15:36:20;7.22;;;5.70;;
36411;SDS011;22445;52.100;5.176;2022-10-17T15:38:54;8.75;;;5.93;;
36411;SDS011;22445;52.100;5.176;2022-10-17T15:41:21;7.78;;;6.25;;
36411;SDS011;22445;52.100;5.176;2022-10-17T15:43:47;5.78;;;5.03;;
36411;SDS011;22445;52.100;5.176;2022-10-17T15:46:17;7.85;;;5.05;;
36411;SDS011;22445;52.100;5.176;2022-10-17T15:48:45;6.72;;;5.47;;
36411;SDS011;22445;52.100;5.176;2022-10-17T15:51:11;7.43;;;5.38;;
36411;SDS011;22445;52.100;5.176;2022-10-17T15:53:36;7.03;;;5.63;;
36411;SDS011;22445;52.100;5.176;2022-10-17T15:56:02;6.65;;;5.93;;
36411;SDS011;22445;52.100;5.176;2022-10-17T15:58:33;7.55;;;5.57;;
36411;SDS011;22445;52.100;5.176;2022-10-17T16:01:00;11.13;;;6.38;;
36411;SDS011;22445;52.100;5.176;2022-10-17T16:03:26;8.10;;;5.70;;
36411;SDS011;22445;52.100;5.176;2022-10-17T16:05:54;8.30;;;6.00;;
36411;SDS011;22445;52.100;5.176;2022-10-17T16:08:20;8.75;;;5.75;;
36411;SDS011;22445;52.100;5.176;2022-10-17T16:10:45;7.18;;;6.32;;
36411;SDS011;22445;52.100;5.176;2022-10-17T16:13:21;9.13;;;6.20;;
36411;SDS011;22445;52.100;5.176;2022-10-17T16:15:47;11.02;;;6.85;;
36411;SDS011;22445;52.100;5.176;2022-10-17T16:18:13;8.77;;;6.22;;
36411;SDS011;22445;52.100;5.176;2022-10-17T16:20:39;9.68;;;5.63;;
36411;SDS011;22445;52.100;5.176;2022-10-17T16:23:05;7.70;;;6.07;;
36411;SDS011;22445;52.100;5.176;2022-10-17T16:25:32;9.20;;;5.78;;
36411;SDS011;22445;52.100;5.176;2022-10-17T16:27:58;7.72;;;5.75;;
36411;SDS011;22445;52.100;5.176;2022-10-17T16:30:25;6.15;;;5.10;;
36411;SDS011;22445;52.100;5.176;2022-10-17T16:32:52;11.45;;;5.50;;
36411;SDS011;22445;52.100;5.176;2022-10-17T16:35:19;5.72;;;5.05;;
36411;SDS011;22445;52.100;5.176;2022-10-17T16:37:46;7.75;;;4.20;;
36411;SDS011;22445;52.100;5.176;2022-10-17T16:40:12;5.53;;;4.95;;